Time;durP1;ratioP1;P1;durP2;ratioP2;P2;SDS_P1;SDS_P2;PMS_P1;PMS_P2;Temp;Humidity;BMP_temperature;BMP_pressure;BME280_temperature;BME280_humidity;BME280_pressure;Samples;Min_cycle;Max_cycle;Signal;HPM_P1;HPM_P2
2023/02/06 00:00:43;;;;;;;95.55;18.92;;;-0.60;99.90;;;;;;5014189;28;20022;-71
2023/02/06 00:03:09;;;;;;;34.03;5.55;;;-0.60;99.90;;;;;;5013928;28;20026;-71
2023/02/06 00:05:35;;;;;;;55.75;6.50;;;-0.60;99.90;;;;;;5014558;28;20572;-71
2023/02/06 00:08:01;;;;;;;52.55;8.23;;;-0.50;99.90;;;;;;5013986;28;20189;-71
2023/02/06 00:10:26;;;;;;;109.57;14.25;;;-0.40;99.90;;;;;;5013730;28;20017;-71
2023/02/06 00:12:52;;;;;;;82.55;15.73;;;-0.20;99.90;;;;;;5013669;28;20045;-71
2023/02/06 00:15:17;;;;;;;104.63;20.83;;;-0.20;99.90;;;;;;5014008;28;20065;-71
2023/02/06 00:17:43;;;;;;;110.78;22.17;;;-0.20;99.90;;;;;;5013597;28;20029;-71
2023/02/06 00:20:10;;;;;;;107.95;28.05;;;-0.20;99.90;;;;;;5013657;28;20451;-71
2023/02/06 00:22:36;;;;;;;112.60;26.48;;;-0.20;99.90;;;;;;5012687;28;20033;-71
2023/02/06 00:25:02;;;;;;;130.15;29.95;;;-0.30;99.90;;;;;;5013660;28;20459;-71
2023/02/06 00:27:28;;;;;;;91.03;22.27;;;-0.30;99.90;;;;;;5013788;28;20025;-71
2023/02/06 00:29:53;;;;;;;72.03;15.75;;;-0.30;99.90;;;;;;5013557;28;20091;-71
2023/02/06 00:32:19;;;;;;;79.25;13.38;;;-0.30;99.90;;;;;;5013619;28;20026;-71
2023/02/06 00:34:44;;;;;;;42.28;8.48;;;-0.40;99.90;;;;;;5013902;28;20034;-71
2023/02/06 00:37:10;;;;;;;63.95;8.90;;;-0.40;99.90;;;;;;5013584;28;20102;-71
2023/02/06 00:39:36;;;;;;;35.25;8.07;;;-0.40;99.90;;;;;;5013519;28;20029;-71
2023/02/06 00:42:02;;;;;;;63.17;8.45;;;-0.50;99.90;;;;;;5013349;28;20562;-71
2023/02/06 00:44:28;;;;;;;41.75;4.82;;;-0.40;99.90;;;;;;5013477;28;20032;-71
2023/02/06 00:46:54;;;;;;;41.60;6.47;;;-0.40;99.90;;;;;;5013603;28;20395;-71
2023/02/06 00:49:19;;;;;;;56.05;6.95;;;-0.40;99.90;;;;;;5013399;28;20096;-71
2023/02/06 00:51:45;;;;;;;39.28;6.53;;;-0.40;99.90;;;;;;5013911;28;20460;-71
2023/02/06 00:54:10;;;;;;;40.20;4.72;;;-0.40;99.90;;;;;;5013580;28;20026;-71
2023/02/06 00:56:36;;;;;;;38.00;5.50;;;-0.50;99.90;;;;;;5013221;28;20354;-71
2023/02/06 00:59:01;;;;;;;41.65;5.72;;;-0.60;99.90;;;;;;5013382;28;20464;-71
2023/02/06 01:01:27;;;;;;;42.25;6.97;;;-0.60;99.90;;;;;;4995719;28;20511;-71
2023/02/06 01:03:53;;;;;;;58.22;6.32;;;-0.60;99.90;;;;;;5013153;28;20396;-71
2023/02/06 01:06:19;;;;;;;35.13;5.20;;;-0.60;99.90;;;;;;5013844;28;20034;-71
2023/02/06 01:08:46;;;;;;;26.13;5.47;;;-0.70;99.90;;;;;;5013304;28;20033;-71
2023/02/06 01:11:14;;;;;;;57.20;7.20;;;-0.70;99.90;;;;;;5013100;28;20076;-71
2023/02/06 01:13:43;;;;;;;51.00;5.55;;;-0.70;99.90;;;;;;5013319;28;20018;-71
2023/02/06 01:16:09;;;;;;;42.60;7.07;;;-0.60;99.90;;;;;;5013548;28;20034;-71
2023/02/06 01:18:35;;;;;;;53.88;6.22;;;-0.50;99.90;;;;;;5013599;28;20496;-71
2023/02/06 01:21:05;;;;;;;51.40;6.72;;;-0.50;99.90;;;;;;5014377;28;20069;-71
2023/02/06 01:23:31;;;;;;;63.92;7.65;;;-0.50;99.90;;;;;;5013161;28;20029;-71
2023/02/06 01:25:56;;;;;;;40.65;4.85;;;-0.40;99.90;;;;;;4995510;28;20018;-71
2023/02/06 01:28:22;;;;;;;34.05;5.93;;;-0.40;99.90;;;;;;5012993;28;20028;-70
2023/02/06 01:30:47;;;;;;;39.38;5.85;;;-0.50;99.90;;;;;;5012950;28;20057;-70
2023/02/06 01:33:13;;;;;;;42.00;5.50;;;-0.60;99.90;;;;;;5014315;28;20380;-70
2023/02/06 01:35:38;;;;;;;46.10;5.75;;;-0.80;99.90;;;;;;5016897;28;20025;-71
2023/02/06 01:38:04;;;;;;;28.02;5.28;;;-0.80;99.90;;;;;;5016656;28;20496;-71
2023/02/06 01:40:30;;;;;;;42.38;5.75;;;-0.90;99.90;;;;;;5016997;28;20468;-71
2023/02/06 01:42:55;;;;;;;54.08;8.68;;;-0.90;99.90;;;;;;5067912;22;20046;-70
2023/02/06 01:45:30;;;;;;;120.88;22.65;;;-0.90;99.90;;;;;;5036424;28;20021;-70
2023/02/06 01:48:03;;;;;;;219.60;37.85;;;-0.90;99.90;;;;;;5036266;28;20054;-69
2023/02/06 01:50:31;;;;;;;82.47;15.95;;;-0.80;99.90;;;;;;5036301;28;20565;-69
2023/02/06 01:52:57;;;;;;;43.78;6.95;;;-0.60;99.90;;;;;;5036365;28;20030;-69
2023/02/06 01:55:23;;;;;;;48.00;7.68;;;-0.50;99.90;;;;;;5036088;28;20030;-69
2023/02/06 01:57:49;;;;;;;42.35;7.28;;;-0.50;99.90;;;;;;5035219;28;20124;-69
2023/02/06 02:00:15;;;;;;;60.08;6.85;;;-0.40;99.90;;;;;;5036186;28;20390;-70
2023/02/06 02:02:43;;;;;;;54.88;9.60;;;-0.60;99.90;;;;;;5035821;28;20030;-70
2023/02/06 02:05:11;;;;;;;52.72;7.15;;;-0.70;99.90;;;;;;5035503;28;20025;-70
2023/02/06 02:07:43;;;;;;;47.28;6.32;;;-0.80;99.90;;;;;;5035996;28;20025;-70
2023/02/06 02:10:09;;;;;;;40.20;7.43;;;-0.90;99.90;;;;;;5036046;28;20026;-70
2023/02/06 02:12:34;;;;;;;53.55;6.90;;;-1.00;99.90;;;;;;5035281;28;20030;-70
2023/02/06 02:15:00;;;;;;;42.03;6.22;;;-1.00;99.90;;;;;;5035774;28;20426;-70
2023/02/06 02:17:28;;;;;;;48.22;6.03;;;-1.00;99.90;;;;;;5035570;28;20398;-70
2023/02/06 02:20:22;;;;;;;42.10;5.13;;;-1.00;99.90;;;;;;5032187;28;20047;-70
2023/02/06 02:23:01;;;;;;;85.50;7.40;;;-1.10;99.90;;;;;;5033509;28;20107;-70
2023/02/06 02:25:50;;;;;;;45.97;8.15;;;-1.00;99.90;;;;;;5032528;28;20071;-69
2023/02/06 02:28:34;;;;;;;35.35;5.40;;;-0.80;99.90;;;;;;5034092;28;20071;-69
2023/02/06 02:31:26;;;;;;;;;;;-0.90;99.90;;;;;;5034356;28;20497;-70
2023/02/06 02:33:58;;;;;;;59.50;6.85;;;-1.00;99.90;;;;;;5035032;28;19909;-70
2023/02/06 02:36:31;;;;;;;47.33;7.47;;;-1.10;99.90;;;;;;5033578;28;20034;-70
2023/02/06 02:39:14;;;;;;;76.78;8.50;;;-1.20;99.90;;;;;;5034581;28;20025;-70
2023/02/06 02:41:50;;;;;;;55.77;9.90;;;-1.20;99.90;;;;;;5034543;28;20506;-70
2023/02/06 02:44:30;;;;;;;58.38;7.78;;;-1.00;99.90;;;;;;5031387;28;20323;-69
2023/02/06 02:47:00;;;;;;;51.40;6.80;;;-0.80;99.90;;;;;;5032295;28;20025;-70
2023/02/06 02:49:30;;;;;;;39.85;5.43;;;-0.80;99.90;;;;;;5032424;28;20025;-70
2023/02/06 02:51:57;;;;;;;45.28;6.60;;;-0.70;99.90;;;;;;5032818;28;20026;-70
2023/02/06 02:54:22;;;;;;;34.25;6.10;;;-0.80;99.90;;;;;;5032850;28;20592;-69
2023/02/06 02:56:48;;;;;;;45.55;6.15;;;-0.80;99.90;;;;;;5033235;28;20021;-70
2023/02/06 02:59:30;;;;;;;43.75;6.93;;;-0.80;99.90;;;;;;5031800;28;20057;-70
2023/02/06 03:02:00;;;;;;;38.65;6.82;;;-0.90;99.90;;;;;;5032712;28;20032;-69
2023/02/06 03:04:34;;;;;;;52.58;6.13;;;-1.00;99.90;;;;;;5032039;28;20053;-69
2023/02/06 03:07:07;;;;;;;37.97;6.07;;;-1.00;99.90;;;;;;5031323;28;20059;-69
2023/02/06 03:09:57;;;;;;;38.88;5.50;;;-1.00;99.90;;;;;;5033086;28;20022;-70
2023/02/06 03:12:28;;;;;;;39.97;7.10;;;-1.10;99.90;;;;;;5032022;28;20743;-70
2023/02/06 03:15:02;;;;;;;42.55;7.63;;;-1.10;99.90;;;;;;5031871;28;20036;-70
2023/02/06 03:17:40;;;;;;;47.95;9.38;;;-1.10;99.90;;;;;;5032199;28;20061;-70
2023/02/06 03:20:08;;;;;;;50.78;7.88;;;-1.00;99.90;;;;;;5032616;28;20047;-70
2023/02/06 03:22:35;;;;;;;42.92;8.23;;;-1.00;99.90;;;;;;5015460;28;20029;-70
2023/02/06 03:25:06;;;;;;;18.00;4.55;;;-1.10;99.90;;;;;;5032933;28;20037;-70
2023/02/06 03:27:33;;;;;;;28.65;5.82;;;-1.10;99.90;;;;;;5032779;28;20025;-70
2023/02/06 03:30:00;;;;;;;19.38;4.55;;;-1.20;99.90;;;;;;5033357;28;20104;-70
2023/02/06 03:32:33;;;;;;;25.00;5.63;;;-1.30;99.90;;;;;;5033886;28;20419;-70
2023/02/06 03:35:21;;;;;;;41.47;5.83;;;-1.30;99.90;;;;;;5033582;28;20083;-70
2023/02/06 03:37:48;;;;;;;18.33;4.93;;;-1.40;99.90;;;;;;5034025;28;20255;-70
2023/02/06 03:40:15;;;;;;;22.77;5.00;;;-1.30;99.90;;;;;;5033396;28;20029;-70
2023/02/06 03:42:47;;;;;;;24.95;4.60;;;-1.20;99.90;;;;;;4996288;28;1065096;-70
2023/02/06 03:45:30;;;;;;;6.40;3.33;;;-1.20;99.90;;;;;;5034198;28;20029;-70
2023/02/06 03:48:03;;;;;;;32.60;7.07;;;-1.20;99.90;;;;;;5034467;28;20029;-70
2023/02/06 03:50:30;;;;;;;55.00;8.95;;;-1.20;99.90;;;;;;5033916;28;20033;-70
2023/02/06 03:52:58;;;;;;;67.72;9.85;;;-1.10;99.90;;;;;;5031104;28;20502;-70
2023/02/06 03:55:24;;;;;;;51.35;8.35;;;-1.10;99.90;;;;;;5026394;28;20108;-70
2023/02/06 03:57:53;;;;;;;31.48;7.57;;;-1.20;99.90;;;;;;5033431;28;20494;-70
2023/02/06 04:00:19;;;;;;;30.00;5.90;;;-1.30;99.90;;;;;;5033669;28;20029;-70
2023/02/06 04:02:49;;;;;;;57.80;9.13;;;-1.40;99.90;;;;;;5033499;28;20021;-70
2023/02/06 04:05:16;;;;;;;46.97;8.85;;;-1.30;99.90;;;;;;5034087;28;20095;-70
2023/02/06 04:07:42;;;;;;;32.35;7.45;;;-1.30;99.90;;;;;;5033563;28;20032;-70
2023/02/06 04:10:08;;;;;;;56.95;8.95;;;-1.30;99.90;;;;;;5033467;28;20057;-70
2023/02/06 04:12:34;;;;;;;32.20;8.18;;;-1.30;99.90;;;;;;5033648;28;20061;-70
2023/02/06 04:14:59;;;;;;;23.20;6.78;;;-1.30;99.90;;;;;;5033882;28;20052;-70
2023/02/06 04:17:25;;;;;;;27.80;6.35;;;-1.40;99.90;;;;;;5033629;28;20033;-70
2023/02/06 04:19:51;;;;;;;86.88;9.07;;;-1.40;99.90;;;;;;5031685;28;20036;-70
2023/02/06 04:22:16;;;;;;;27.50;7.32;;;-1.30;99.90;;;;;;5033495;28;20099;-70
2023/02/06 04:24:42;;;;;;;34.85;6.78;;;-1.30;99.90;;;;;;5033570;28;20065;-70
2023/02/06 04:27:10;;;;;;;36.88;7.70;;;-1.20;99.90;;;;;;5033480;28;20036;-70
2023/02/06 04:29:36;;;;;;;28.95;6.95;;;-1.20;99.90;;;;;;5033679;28;20112;-69
2023/02/06 04:32:02;;;;;;;17.65;5.78;;;-1.20;99.90;;;;;;5033281;28;20061;-70
2023/02/06 04:34:28;;;;;;;24.00;6.82;;;-1.10;99.90;;;;;;5017558;28;20471;-70
2023/02/06 04:36:54;;;;;;;14.65;5.70;;;-1.00;99.90;;;;;;5013443;28;20038;-70
2023/02/06 04:39:20;;;;;;;13.32;6.55;;;-0.90;99.90;;;;;;5013640;28;20088;-70
2023/02/06 04:41:45;;;;;;;18.35;6.65;;;-0.80;99.90;;;;;;5013286;28;20491;-70
2023/02/06 04:44:11;;;;;;;18.83;6.57;;;-0.70;99.90;;;;;;5013839;28;20041;-70
2023/02/06 04:46:36;;;;;;;69.63;11.57;;;-0.60;99.90;;;;;;5013444;28;20036;-70
2023/02/06 04:49:02;;;;;;;55.47;9.85;;;-0.60;99.90;;;;;;5013440;28;20026;-70
2023/02/06 04:51:28;;;;;;;52.67;11.25;;;-0.60;99.90;;;;;;5013712;28;20105;-70
2023/02/06 04:53:53;;;;;;;103.13;15.88;;;-0.50;99.90;;;;;;5025932;28;20080;-70
2023/02/06 04:56:19;;;;;;;67.90;13.80;;;-0.50;99.90;;;;;;5033016;28;20021;-70
2023/02/06 04:58:44;;;;;;;75.93;13.07;;;-0.50;99.90;;;;;;5032713;28;20032;-70
2023/02/06 05:01:10;;;;;;;64.65;11.23;;;-0.50;99.90;;;;;;5033132;28;20017;-70
2023/02/06 05:03:36;;;;;;;111.53;12.40;;;-0.50;99.90;;;;;;5032978;28;20452;-70
2023/02/06 05:06:02;;;;;;;65.50;12.32;;;-0.40;99.90;;;;;;5033288;28;20043;-70
2023/02/06 05:08:28;;;;;;;70.60;10.60;;;-0.40;99.90;;;;;;5034790;28;20029;-70
2023/02/06 05:10:55;;;;;;;45.92;9.27;;;-0.30;99.90;;;;;;5037253;28;20083;-70
2023/02/06 05:13:21;;;;;;;41.88;7.97;;;-0.20;99.90;;;;;;5036969;28;20486;-70
2023/02/06 05:15:47;;;;;;;39.67;6.68;;;-0.20;99.90;;;;;;5036701;28;20026;-70
2023/02/06 05:18:13;;;;;;;28.60;7.15;;;-0.20;99.90;;;;;;5037121;28;20026;-70
2023/02/06 05:20:40;;;;;;;48.30;8.68;;;-0.10;99.90;;;;;;5036840;28;20114;-70
2023/02/06 05:23:05;;;;;;;30.00;6.45;;;-0.10;99.90;;;;;;5036544;28;20475;-70
2023/02/06 05:25:31;;;;;;;63.92;7.50;;;0.00;99.90;;;;;;5036780;28;20109;-70
2023/02/06 05:27:56;;;;;;;34.63;8.57;;;0.10;99.90;;;;;;5036454;28;20415;-70
2023/02/06 05:30:23;;;;;;;59.33;11.02;;;0.30;99.90;;;;;;5036638;28;20037;-70
2023/02/06 05:32:49;;;;;;;63.45;9.85;;;0.30;99.90;;;;;;5036612;28;20193;-70
2023/02/06 05:35:15;;;;;;;74.50;11.63;;;0.20;99.90;;;;;;5036914;28;20022;-70
2023/02/06 05:37:40;;;;;;;57.20;9.52;;;0.10;99.90;;;;;;5036516;28;20467;-70
2023/02/06 05:40:07;;;;;;;76.28;10.30;;;0.10;99.90;;;;;;5036359;28;20033;-70
2023/02/06 05:42:32;;;;;;;34.70;8.70;;;0.20;99.90;;;;;;5036515;28;20033;-70
2023/02/06 05:44:58;;;;;;;68.25;10.45;;;0.20;99.90;;;;;;5036440;28;20109;-70
2023/02/06 05:47:24;;;;;;;44.35;7.97;;;0.20;99.90;;;;;;5036493;28;20029;-70
2023/02/06 05:49:50;;;;;;;39.53;9.50;;;0.20;99.90;;;;;;5036283;28;20025;-70
2023/02/06 05:52:16;;;;;;;53.97;8.98;;;0.20;99.90;;;;;;5036255;28;20029;-70
2023/02/06 05:54:41;;;;;;;53.17;7.68;;;0.10;99.90;;;;;;5018603;28;20053;-70
2023/02/06 05:57:07;;;;;;;41.38;7.45;;;0.10;99.90;;;;;;5036053;28;20025;-70
2023/02/06 05:59:32;;;;;;;45.85;8.10;;;0.10;99.90;;;;;;5035967;28;20030;-70
2023/02/06 06:01:58;;;;;;;33.80;6.68;;;0.10;99.90;;;;;;5033717;28;20045;-70
2023/02/06 06:04:24;;;;;;;44.97;8.80;;;0.00;99.90;;;;;;5031306;28;20433;-70
2023/02/06 06:06:50;;;;;;;49.67;9.75;;;0.00;99.90;;;;;;5016541;28;20499;-70
2023/02/06 06:09:16;;;;;;;38.55;8.60;;;0.00;99.90;;;;;;5016022;28;20030;-70
2023/02/06 06:11:41;;;;;;;50.47;9.32;;;-0.10;99.90;;;;;;5015831;28;20508;-70
2023/02/06 06:14:07;;;;;;;33.55;7.65;;;-0.10;99.90;;;;;;5016101;28;20022;-70
2023/02/06 06:16:32;;;;;;;62.10;9.13;;;-0.10;99.90;;;;;;5016624;28;20052;-70
2023/02/06 06:18:58;;;;;;;49.25;10.77;;;-0.20;99.90;;;;;;5015948;28;20044;-70
2023/02/06 06:21:24;;;;;;;65.70;16.58;;;-0.20;99.90;;;;;;5016135;28;20030;-70
2023/02/06 06:23:49;;;;;;;67.93;13.55;;;-0.20;99.90;;;;;;5015901;28;20029;-70
2023/02/06 06:26:15;;;;;;;57.55;13.15;;;-0.30;99.90;;;;;;5015909;28;20105;-70
2023/02/06 06:28:41;;;;;;;44.20;12.77;;;-0.30;99.90;;;;;;5016153;28;20384;-70
2023/02/06 06:31:12;;;;;;;32.53;10.45;;;-0.20;99.90;;;;;;5015729;28;20033;-70
2023/02/06 06:33:38;;;;;;;28.35;10.07;;;-0.20;99.90;;;;;;5015796;28;20029;-70
2023/02/06 06:36:05;;;;;;;125.78;26.23;;;-0.10;99.90;;;;;;5016013;28;20029;-70
2023/02/06 06:38:31;;;;;;;146.20;35.15;;;0.00;99.90;;;;;;5015673;28;20029;-70
2023/02/06 06:40:56;;;;;;;88.72;24.92;;;0.00;99.90;;;;;;5015693;28;20029;-70
2023/02/06 06:43:22;;;;;;;128.50;39.85;;;0.10;99.90;;;;;;5015411;28;20092;-70
2023/02/06 06:45:47;;;;;;;147.98;44.90;;;0.10;99.90;;;;;;5015816;28;20033;-70
2023/02/06 06:48:13;;;;;;;126.25;39.35;;;0.20;99.90;;;;;;5015959;28;20503;-70
2023/02/06 06:50:39;;;;;;;81.13;24.35;;;0.20;99.90;;;;;;5015668;28;20403;-70
2023/02/06 06:53:04;;;;;;;76.38;22.88;;;0.20;99.90;;;;;;5015429;28;20025;-70
2023/02/06 06:55:30;;;;;;;67.65;20.70;;;0.20;99.90;;;;;;5015651;28;20025;-70
2023/02/06 06:57:56;;;;;;;82.30;25.30;;;0.20;99.90;;;;;;5015666;28;20431;-70
2023/02/06 07:00:21;;;;;;;64.75;19.48;;;0.30;99.90;;;;;;5015541;28;20030;-69
2023/02/06 07:02:47;;;;;;;42.42;14.05;;;0.30;99.90;;;;;;5015146;28;20038;-69
2023/02/06 07:05:12;;;;;;;46.95;15.73;;;0.30;99.90;;;;;;5015192;28;20026;-69
2023/02/06 07:07:38;;;;;;;50.28;15.07;;;0.50;99.90;;;;;;5015682;28;20022;-69
2023/02/06 07:10:05;;;;;;;38.22;12.63;;;0.50;99.90;;;;;;5015009;28;20026;-69
2023/02/06 07:12:31;;;;;;;21.17;8.45;;;0.50;99.90;;;;;;5014981;28;20068;-69
2023/02/06 07:14:57;;;;;;;21.02;8.40;;;0.50;99.90;;;;;;5015009;28;20026;-69
2023/02/06 07:17:22;;;;;;;13.30;7.03;;;0.60;99.90;;;;;;5014967;28;20392;-69
2023/02/06 07:19:50;;;;;;;13.57;6.20;;;0.70;99.90;;;;;;5014927;28;20037;-69
2023/02/06 07:22:16;;;;;;;10.65;5.53;;;0.80;99.90;;;;;;5014997;28;20113;-69
2023/02/06 07:24:41;;;;;;;30.70;8.43;;;0.90;99.90;;;;;;5014830;28;20100;-69
2023/02/06 07:27:07;;;;;;;21.90;8.73;;;0.90;99.90;;;;;;5015048;28;20030;-69
2023/02/06 07:29:32;;;;;;;19.17;8.80;;;0.90;99.90;;;;;;5014662;28;20125;-69
2023/02/06 07:31:58;;;;;;;34.13;10.70;;;1.00;99.90;;;;;;5014134;28;20072;-70
2023/02/06 07:34:24;;;;;;;28.40;11.40;;;1.00;99.90;;;;;;5014653;28;20542;-70
2023/02/06 07:36:50;;;;;;;27.75;11.63;;;1.00;99.90;;;;;;5014592;28;20066;-70
2023/02/06 07:39:16;;;;;;;34.75;11.73;;;1.00;99.90;;;;;;5014565;28;20510;-70
2023/02/06 07:41:41;;;;;;;32.80;12.93;;;1.00;99.90;;;;;;5014224;28;20030;-70
2023/02/06 07:44:09;;;;;;;76.70;24.55;;;1.00;99.90;;;;;;5091360;22;20131;-73
2023/02/06 07:46:35;;;;;;;96.65;31.27;;;1.00;99.90;;;;;;5055942;28;20040;-73
2023/02/06 07:49:00;;;;;;;82.32;30.83;;;1.00;99.90;;;;;;5054488;28;20465;-74
2023/02/06 07:51:26;;;;;;;61.08;21.02;;;1.10;99.90;;;;;;5054556;28;20029;-73
2023/02/06 07:53:51;;;;;;;52.78;18.25;;;1.10;99.90;;;;;;5054132;28;20114;-73
2023/02/06 07:56:19;;;;;;;46.20;15.15;;;1.10;99.90;;;;;;5054213;28;20024;-74
2023/02/06 07:58:49;;;;;;;51.53;12.80;;;1.20;99.90;;;;;;5054087;28;20025;-73
2023/02/06 08:01:14;;;;;;;28.25;10.68;;;1.20;99.90;;;;;;5054325;28;20028;-73
2023/02/06 08:03:40;;;;;;;36.88;10.63;;;1.30;99.90;;;;;;5054182;28;20040;-73
2023/02/06 08:06:11;;;;;;;36.67;11.93;;;1.30;99.90;;;;;;5053939;28;20052;-72
2023/02/06 08:08:36;;;;;;;33.17;10.65;;;1.40;99.90;;;;;;5053940;28;20394;-73
2023/02/06 08:11:17;;;;;;;17.85;8.25;;;1.40;99.90;;;;;;5053828;28;20031;-73
2023/02/06 08:13:45;;;;;;;24.15;8.95;;;1.50;99.90;;;;;;5053761;28;20547;-73
2023/02/06 08:16:13;;;;;;;63.40;17.35;;;1.50;99.90;;;;;;5054091;28;20518;-73
2023/02/06 08:18:39;;;;;;;59.33;16.08;;;1.50;99.90;;;;;;5053736;28;20033;-73
2023/02/06 08:21:06;;;;;;;49.40;16.85;;;1.60;99.90;;;;;;5054012;28;20021;-73
2023/02/06 08:23:32;;;;;;;47.15;16.52;;;1.70;99.90;;;;;;5053417;28;20406;-73
2023/02/06 08:26:14;;;;;;;48.83;15.85;;;1.70;99.90;;;;;;5053973;28;20027;-73
2023/02/06 08:28:40;;;;;;;46.65;15.43;;;1.80;99.90;;;;;;5069203;28;20037;-73
2023/02/06 08:31:12;;;;;;;64.72;16.42;;;1.90;99.90;;;;;;5053720;28;20025;-73
2023/02/06 08:33:38;;;;;;;74.97;14.70;;;2.00;99.90;;;;;;5053491;28;20538;-73
2023/02/06 08:36:05;;;;;;;31.05;11.15;;;2.10;99.90;;;;;;5053507;28;20074;-73
2023/02/06 08:38:31;;;;;;;24.58;9.48;;;2.20;99.90;;;;;;5053381;28;20064;-73
2023/02/06 08:40:56;;;;;;;26.65;9.32;;;2.30;99.90;;;;;;5053479;28;20029;-73
2023/02/06 08:43:22;;;;;;;30.70;8.75;;;2.30;99.90;;;;;;5052296;28;20033;-73
2023/02/06 08:45:49;;;;;;;20.95;8.23;;;2.40;99.90;;;;;;5053372;28;20029;-73
2023/02/06 08:48:15;;;;;;;14.93;7.28;;;2.50;99.90;;;;;;5053322;28;20028;-73
2023/02/06 08:50:41;;;;;;;15.35;7.53;;;2.60;99.90;;;;;;5053366;28;20394;-73
2023/02/06 08:53:07;;;;;;;23.95;7.50;;;2.60;99.90;;;;;;5053394;28;20056;-73
2023/02/06 08:55:32;;;;;;;27.25;8.15;;;2.70;99.90;;;;;;5053268;28;20057;-72
2023/02/06 08:57:58;;;;;;;14.13;6.72;;;2.80;99.90;;;;;;5053306;28;20102;-73
2023/02/06 09:00:24;;;;;;;12.80;6.32;;;2.90;99.90;;;;;;5053307;28;20444;-73
2023/02/06 09:02:52;;;;;;;9.70;6.05;;;2.90;99.90;;;;;;5053120;28;20522;-73
2023/02/06 09:05:18;;;;;;;21.30;6.97;;;3.10;99.90;;;;;;5053244;28;20021;-73
2023/02/06 09:07:43;;;;;;;22.50;7.15;;;3.20;99.90;;;;;;5053483;28;20044;-73
2023/02/06 09:10:09;;;;;;;8.90;5.72;;;3.40;99.90;;;;;;5053055;28;20043;-73
2023/02/06 09:12:34;;;;;;;29.10;6.78;;;3.40;99.90;;;;;;5053572;28;20022;-73
2023/02/06 09:15:00;;;;;;;8.68;5.38;;;3.50;99.90;;;;;;5053486;28;20072;-72
2023/02/06 09:17:30;;;;;;;13.07;5.88;;;3.50;99.90;;;;;;5053418;28;20033;-73
2023/02/06 09:19:58;;;;;;;7.57;4.88;;;3.50;99.90;;;;;;5053110;28;20017;-73
2023/02/06 09:22:24;;;;;;;39.78;5.82;;;3.60;99.90;;;;;;5053030;28;20036;-73
2023/02/06 09:24:50;;;;;;;5.78;4.25;;;3.60;99.90;;;;;;5053246;28;20036;-73
2023/02/06 09:27:15;;;;;;;17.30;6.07;;;3.60;99.90;;;;;;5053109;28;20060;-73
2023/02/06 09:29:41;;;;;;;24.13;4.90;;;3.60;99.90;;;;;;5052974;28;20068;-73
2023/02/06 09:32:07;;;;;;;54.80;6.28;;;3.60;99.90;;;;;;5053155;28;20116;-72
2023/02/06 09:34:32;;;;;;;6.43;4.13;;;3.60;99.90;;;;;;5053013;28;20068;-73
2023/02/06 09:37:01;;;;;;;51.85;6.95;;;3.60;99.90;;;;;;5052951;28;20488;-73
2023/02/06 09:39:27;;;;;;;23.92;8.13;;;3.60;99.90;;;;;;5053212;28;20025;-73
2023/02/06 09:42:06;;;;;;;32.38;9.77;;;3.50;99.90;;;;;;5052926;28;20414;-73
2023/02/06 09:44:42;;;;;;;29.35;5.80;;;3.40;99.90;;;;;;5052899;28;20596;-73
2023/02/06 09:47:21;;;;;;;7.05;4.15;;;3.50;99.90;;;;;;5053260;28;20436;-73
2023/02/06 09:49:50;;;;;;;10.02;4.70;;;3.60;99.90;;;;;;5052965;28;20029;-73
2023/02/06 09:52:30;;;;;;;80.50;7.00;;;3.70;99.90;;;;;;5052710;28;20049;-73
2023/02/06 09:55:08;;;;;;;73.65;7.00;;;3.80;99.90;;;;;;5055077;28;20053;-73
2023/02/06 09:57:40;;;;;;;42.75;5.65;;;3.80;99.90;;;;;;5056387;28;20017;-73
2023/02/06 10:00:20;;;;;;;24.10;4.15;;;3.90;99.90;;;;;;5056661;28;20029;-74
2023/02/06 10:03:18;;;;;;;15.88;3.92;;;4.10;99.90;;;;;;5056937;28;20108;-74
2023/02/06 10:05:50;;;;;;;69.18;5.75;;;4.10;99.90;;;;;;5050682;28;20056;-73
2023/02/06 10:08:25;;;;;;;361.60;14.68;;;4.10;99.90;;;;;;5056745;28;20394;-74
2023/02/06 10:10:54;;;;;;;166.60;8.65;;;4.10;99.90;;;;;;5057320;28;20051;-74
2023/02/06 10:13:35;;;;;;;297.38;10.32;;;4.10;99.90;;;;;;5056744;28;20021;-73
2023/02/06 10:16:28;;;;;;;165.60;8.40;;;3.90;99.90;;;;;;5056311;28;20028;-74
2023/02/06 10:18:58;;;;;;;148.05;8.70;;;3.70;99.90;;;;;;5050516;28;20049;-74
2023/02/06 10:21:31;;;;;;;183.07;11.00;;;3.70;99.90;;;;;;5056108;28;20044;-73
2023/02/06 10:23:59;;;;;;;178.32;15.80;;;3.50;99.90;;;;;;5056720;28;20018;-73
2023/02/06 10:26:27;;;;;;;167.05;9.50;;;3.50;99.90;;;;;;5071420;28;20033;-73
2023/02/06 10:28:55;;;;;;;68.43;11.90;;;3.40;99.90;;;;;;5055804;28;20044;-73
2023/02/06 10:31:24;;;;;;;240.35;11.13;;;3.40;99.90;;;;;;5071213;28;20028;-73
2023/02/06 10:33:55;;;;;;;170.98;9.48;;;3.40;99.90;;;;;;5055915;28;20067;-73
2023/02/06 10:36:59;;;;;;;122.30;13.27;;;3.50;99.90;;;;;;5056057;28;20031;-73
2023/02/06 10:39:45;;;;;;;497.95;99.22;;;3.50;99.90;;;;;;5055812;28;20035;-73
2023/02/06 10:42:28;;;;;;;479.77;153.88;;;3.40;99.90;;;;;;5048888;28;20441;-73
2023/02/06 10:45:12;;;;;;;254.43;34.42;;;3.50;99.90;;;;;;5055054;28;20110;-73
2023/02/06 10:47:59;;;;;;;180.27;13.75;;;3.80;99.90;;;;;;5054783;28;20090;-72
2023/02/06 10:50:33;;;;;;;205.77;22.35;;;3.80;99.90;;;;;;5067117;28;20093;-73
2023/02/06 10:53:04;;;;;;;35.85;5.45;;;3.70;99.90;;;;;;5055385;28;20429;-73
2023/02/06 10:55:43;;;;;;;214.52;15.00;;;3.80;99.90;;;;;;5055518;28;20024;-74
2023/02/06 10:58:20;;;;;;;161.10;12.32;;;3.70;99.90;;;;;;5055284;28;20021;-73
2023/02/06 11:00:48;;;;;;;93.05;12.57;;;3.80;99.90;;;;;;5054327;28;20082;-73
2023/02/06 11:03:18;;;;;;;117.28;12.45;;;3.90;99.90;;;;;;5055097;28;20551;-72
2023/02/06 11:05:44;;;;;;;132.52;13.98;;;4.00;99.90;;;;;;5054504;28;20387;-72
2023/02/06 11:08:30;;;;;;;59.10;12.20;;;3.70;99.90;;;;;;5052950;28;20030;-72
2023/02/06 11:10:56;;;;;;;35.83;6.53;;;3.90;99.90;;;;;;5055242;28;20021;-73
2023/02/06 11:13:25;;;;;;;101.97;7.90;;;4.10;99.90;;;;;;5055154;28;20096;-72
2023/02/06 11:16:21;;;;;;;159.77;18.20;;;4.30;99.90;;;;;;5055088;28;20068;-72
2023/02/06 11:18:48;;;;;;;80.45;7.68;;;4.20;99.90;;;;;;5053858;28;20394;-72
2023/02/06 11:21:35;;;;;;;67.18;8.18;;;4.50;99.90;;;;;;5049483;28;20415;-72
2023/02/06 11:24:27;;;;;;;31.13;7.15;;;4.60;99.90;;;;;;5034473;28;20033;-73
2023/02/06 11:26:59;;;;;;;67.95;7.47;;;4.80;99.90;;;;;;5031611;28;20034;-73
2023/02/06 11:29:36;;;;;;;91.23;7.27;;;4.90;99.90;;;;;;5034872;28;20035;-73
2023/02/06 11:32:05;;;;;;;36.22;5.55;;;4.80;99.90;;;;;;5035018;28;20025;-73
2023/02/06 11:34:34;;;;;;;9.85;4.57;;;4.90;99.90;;;;;;5035623;28;20136;-73
2023/02/06 11:37:37;;;;;;;21.73;4.97;;;5.00;99.90;;;;;;5055052;28;20025;-73
2023/02/06 11:40:18;;;;;;;11.25;4.43;;;5.00;99.90;;;;;;5054493;28;20029;-73
2023/02/06 11:42:55;;;;;;;11.85;3.88;;;5.00;99.90;;;;;;5054445;28;20033;-73
2023/02/06 11:45:28;;;;;;;6.63;3.70;;;5.10;99.90;;;;;;5070024;28;20123;-73
2023/02/06 11:47:54;;;;;;;14.00;3.25;;;5.00;99.90;;;;;;5054778;28;20028;-73
2023/02/06 11:50:27;;;;;;;16.00;3.65;;;5.10;99.90;;;;;;5055087;28;20025;-72
2023/02/06 11:53:16;;;;;;;7.90;3.58;;;5.20;99.90;;;;;;5054102;28;20025;-73
2023/02/06 11:55:44;;;;;;;9.63;3.28;;;5.20;99.90;;;;;;5054283;28;20055;-73
2023/02/06 11:58:20;;;;;;;21.80;4.32;;;5.20;99.90;;;;;;5054295;28;20096;-73
2023/02/06 12:01:00;;;;;;;13.70;3.78;;;5.30;99.90;;;;;;5052265;28;20038;-73
2023/02/06 12:03:37;;;;;;;12.05;4.03;;;5.00;99.90;;;;;;5034261;28;20024;-73
2023/02/06 12:06:12;;;;;;;27.63;5.05;;;5.10;99.90;;;;;;5034600;28;20029;-73
2023/02/06 12:08:47;;;;;;;19.27;5.38;;;5.10;99.90;;;;;;5034049;28;20365;-73
2023/02/06 12:11:22;;;;;;;39.10;5.32;;;5.00;99.90;;;;;;5034083;28;20498;-73
2023/02/06 12:13:53;;;;;;;14.95;3.80;;;5.00;99.90;;;;;;5034649;28;20089;-73
2023/02/06 12:16:20;;;;;;;31.02;3.83;;;5.00;99.90;;;;;;5034553;28;20024;-73
2023/02/06 12:18:50;;;;;;;29.60;3.95;;;4.90;99.90;;;;;;5034088;28;20018;-73
2023/02/06 12:21:37;;;;;;;7.95;3.63;;;4.80;99.90;;;;;;5033728;28;20029;-73
2023/02/06 12:24:27;;;;;;;46.63;5.10;;;4.90;99.90;;;;;;5033864;28;20446;-74
2023/02/06 12:26:54;;;;;;;32.35;4.82;;;5.00;99.90;;;;;;5033832;28;20060;-73
2023/02/06 12:29:39;;;;;;;40.10;10.60;;;4.90;99.90;;;;;;5033808;28;20033;-73
2023/02/06 12:32:13;;;;;;;13.32;7.55;;;4.80;99.90;;;;;;5053937;28;20021;-74
2023/02/06 12:34:52;;;;;;;10.43;4.32;;;4.70;99.90;;;;;;5054547;28;20013;-74
2023/02/06 12:37:42;;;;;;;14.23;4.10;;;4.90;99.90;;;;;;5054272;28;20023;-74
2023/02/06 12:40:28;;;;;;;12.88;4.43;;;5.00;99.90;;;;;;5053738;28;20024;-74
2023/02/06 12:43:03;;;;;;;13.13;3.50;;;5.00;99.90;;;;;;5052946;28;20049;-74
2023/02/06 12:45:56;;;;;;;9.63;3.78;;;5.10;99.90;;;;;;5053583;28;20112;-75
2023/02/06 12:48:50;;;;;;;10.82;4.78;;;5.20;99.90;;;;;;5053704;28;20517;-74
2023/02/06 12:51:34;;;;;;;13.88;4.82;;;5.10;99.90;;;;;;5053347;28;20082;-74